aviador You're here:

KLWC Decoded Metar

LAWRENCE in KS, USA
Report Time2017-11-24 02:52:00
UTC Time2017-11-24 03:49:30
Flight Rules vfr VFR
Wind100° at 05 kt
W.Decomp.*RWY 15: 2.9 kt HW 4 kt LCW
RWY 01: 0.3 kt HW 5.0 kt RCW
W.Rank100° ranks 14
Current wind is below 100° avg. (5.7)
Visibility9999 m
Phenomena:N/A
Clouds:N/A
Expected CloudBase > 2,000 ft AGL from Temp-Dew spread
CeilingNone
Temp08°C (ISA -5)
Dew Point03°C (71% RH)
AAT4.7°C
QNH1013 hPa
Density Alt295 ft
Elevation830 ft
Report Wrong Elevation
Raw Report
KLWC 240252Z AUTO 10005KT 10SM CLR 08/03 A2992 RMK AO2 SLP133
T00830028 58005=

Extra information for KLWC:More info

Metar Taf Metar & Taf Last 4 Metars F.Rules Stats Wind Profile Meteogram Temp Stats Airport Information Weather charts Add Link Nearby VenuesMetar ALERT Operation Metar Decoded Social comments

AIRNAV info for KLWC
GUT Works, LLC